Time;durP1;ratioP1;P1;durP2;ratioP2;P2;SDS_P1;SDS_P2;PMS_P1;PMS_P2;Temp;Humidity;BMP_temperature;BMP_pressure;BME280_temperature;BME280_humidity;BME280_pressure;Samples;Min_cycle;Max_cycle;Signal;HPM_P1;HPM_P2
2021/10/01 00:01:12;;;;;;;;;4.00;4.00;;;;;22.14;40.49;101726.72;5036703;28;51176;-52
2021/10/01 00:03:37;;;;;;;;;6.00;4.75;;;;;22.14;41.15;101717.59;5036688;28;51322;-50
2021/10/01 00:06:03;;;;;;;;;5.00;3.50;;;;;22.14;41.15;101721.22;5034734;28;51965;-49
2021/10/01 00:08:28;;;;;;;;;3.25;3.25;;;;;22.13;41.09;101715.91;5032940;28;51033;-53
2021/10/01 00:10:57;;;;;;;;;3.50;3.50;;;;;22.13;41.07;101721.44;5019980;28;51113;-53
2021/10/01 00:13:22;;;;;;;;;3.50;2.25;;;;;22.12;40.70;101716.97;5017655;28;50987;-51
2021/10/01 00:15:47;;;;;;;;;4.50;4.00;;;;;22.12;40.94;101716.97;5017328;28;52058;-48
2021/10/01 00:18:13;;;;;;;;;3.75;3.00;;;;;22.11;40.63;101712.53;5026617;28;51207;-50
2021/10/01 00:20:38;;;;;;;;;4.00;2.75;;;;;22.09;40.72;101709.97;5019490;28;51137;-51
2021/10/01 00:23:04;;;;;;;;;6.25;3.00;;;;;22.09;40.93;101703.59;5035963;28;51100;-48
2021/10/01 00:25:30;;;;;;;;;3.00;2.75;;;;;22.10;40.74;101705.31;5035270;28;51974;-52
2021/10/01 00:27:55;;;;;;;;;3.75;3.75;;;;;22.08;41.14;101697.22;5052195;28;51068;-52
2021/10/01 00:30:21;;;;;;;;;6.25;4.25;;;;;22.08;41.12;101693.59;5054691;28;51577;-51
2021/10/01 00:32:48;;;;;;;;;3.00;3.00;;;;;22.07;40.88;101692.75;5034000;28;51259;-51
2021/10/01 00:35:13;;;;;;;;;2.00;2.00;;;;;22.07;40.67;101695.53;5036249;28;51015;-50
2021/10/01 00:37:39;;;;;;;;;3.00;3.00;;;;;22.07;40.75;101698.28;5036271;28;50870;-53
2021/10/01 00:40:05;;;;;;;;;3.75;3.00;;;;;22.07;41.22;101690.00;5036239;28;51112;-50
2021/10/01 00:42:30;;;;;;;;;3.00;3.00;;;;;22.06;41.29;101687.44;5027899;28;51068;-52
2021/10/01 00:44:56;;;;;;;;;2.00;2.00;;;;;22.07;40.77;101700.19;5017097;28;51141;-52
2021/10/01 00:47:21;;;;;;;;;3.25;3.00;;;;;22.05;41.16;101703.13;5015787;28;51119;-53
2021/10/01 00:49:46;;;;;;;;;4.00;3.75;;;;;22.06;40.95;101706.75;5016716;28;50971;-51
2021/10/01 00:52:14;;;;;;;;;2.75;2.50;;;;;22.05;40.82;101696.78;5015951;28;51132;-52
2021/10/01 00:54:40;;;;;;;;;3.00;1.75;;;;;22.03;41.09;101690.63;5015617;28;51966;-51
2021/10/01 00:57:05;;;;;;;;;2.00;2.00;;;;;22.04;40.92;101695.06;5020043;28;51218;-51
2021/10/01 00:59:30;;;;;;;;;2.00;2.00;;;;;22.03;41.05;101688.72;5034888;28;51170;-51
2021/10/01 01:01:56;;;;;;;;;2.50;2.50;;;;;22.03;41.04;101682.34;5016719;28;51149;-52
2021/10/01 01:04:22;;;;;;;;;4.50;3.00;;;;;22.03;40.76;101685.94;5015666;28;51043;-51
2021/10/01 01:07:17;;;;;;;;;4.25;2.00;;;;;22.04;41.39;101686.78;5015898;28;51333;-52
2021/10/01 01:10:10;;;;;;;;;3.50;2.00;;;;;22.04;41.52;101682.13;5017030;28;51143;-51
2021/10/01 01:12:47;;;;;;;;;4.50;3.25;;;;;22.04;41.48;101675.75;5016029;28;50960;-51
2021/10/01 01:15:26;;;;;;;;;2.00;2.00;;;;;22.03;41.60;101674.91;5015361;28;51077;-49
2021/10/01 01:17:59;;;;;;;;;2.00;2.00;;;;;22.02;41.23;101670.47;5016570;28;51106;-52
2021/10/01 01:20:40;;;;;;;;;4.00;3.00;;;;;22.02;41.46;101658.59;5026486;28;51217;-53
2021/10/01 01:23:43;;;;;;;;;2.50;2.25;;;;;22.02;41.58;101661.34;5031813;28;50902;-51
2021/10/01 01:26:29;;;;;;;;;4.00;3.75;;;;;22.02;41.22;101661.34;5038138;28;52140;-52
2021/10/01 01:29:03;;;;;;;;;4.75;3.00;;;;;22.01;41.17;101654.97;5055250;28;51350;-49
2021/10/01 01:31:43;;;;;;;;;4.75;2.00;;;;;22.01;41.54;101652.22;5023658;28;51169;-49
2021/10/01 01:34:13;;;;;;;;;5.00;3.25;;;;;22.00;41.27;101653.28;5015088;28;51006;-50
2021/10/01 01:36:41;;;;;;;;;4.50;2.00;;;;;22.00;41.37;101653.28;5017918;28;51024;-51
2021/10/01 01:39:08;;;;;;;;;1.75;1.75;;;;;22.00;41.62;101649.69;5018604;28;51421;-50
2021/10/01 01:41:34;;;;;;;;;5.75;3.00;;;;;22.00;41.37;101646.91;5034842;28;51118;-50
2021/10/01 01:44:01;;;;;;;;;5.25;5.25;;;;;22.00;41.29;101646.91;5038567;28;51239;-51
2021/10/01 01:46:27;;;;;;;;;4.50;3.25;;;;;22.00;41.37;101638.63;5038101;28;50988;-50
2021/10/01 01:48:54;;;;;;;;;2.00;2.00;;;;;22.00;41.42;101639.47;5038837;28;51474;-51
2021/10/01 01:51:23;;;;;;;;;6.50;5.75;;;;;21.99;41.58;101637.78;5034837;28;51191;-51
2021/10/01 01:53:49;;;;;;;;;5.25;2.75;;;;;22.01;41.67;101640.34;5038433;28;50991;-50
2021/10/01 01:56:16;;;;;;;;;3.00;3.00;;;;;21.99;41.34;101625.88;5038592;28;51993;-52
2021/10/01 01:58:43;;;;;;;;;3.75;2.75;;;;;21.99;41.35;101625.88;5038574;28;51099;-52
2021/10/01 02:01:11;;;;;;;;;7.25;6.25;;;;;21.99;41.56;101615.72;5025602;28;51138;-49
2021/10/01 02:03:38;;;;;;;;;5.75;5.00;;;;;21.98;41.55;101608.47;5018950;28;51249;-52
2021/10/01 02:06:05;;;;;;;;;3.00;3.00;;;;;21.99;41.80;101614.84;5018776;28;51010;-53
2021/10/01 02:08:33;;;;;;;;;6.50;4.25;;;;;21.97;41.89;101604.03;5018934;28;51334;-53
2021/10/01 02:11:00;;;;;;;;;3.25;3.25;;;;;21.97;41.63;101601.28;5028976;28;51213;-51
2021/10/01 02:13:26;;;;;;;;;5.00;5.00;;;;;21.96;41.54;101599.56;5038665;28;50882;-52
2021/10/01 02:15:54;;;;;;;;;5.25;4.00;;;;;21.97;41.85;101595.75;5035933;28;51037;-52
2021/10/01 02:18:23;;;;;;;;;5.00;5.00;;;;;21.96;41.87;101594.06;5029341;28;51072;-51
2021/10/01 02:20:51;;;;;;;;;4.75;4.75;;;;;21.96;41.53;101593.22;5031121;28;51112;-52
2021/10/01 02:23:16;;;;;;;;;6.25;5.25;;;;;21.97;41.76;101589.38;5038386;28;51273;-55
2021/10/01 02:28:32;;;;;;;;;5.25;5.00;;;;;21.95;41.12;101586.84;5057923;28;51317;-52
2021/10/01 02:31:00;;;;;;;;;2.00;2.00;;;;;21.95;41.41;101586.84;5038014;28;51073;-51
2021/10/01 02:33:36;;;;;;;;;3.50;3.25;;;;;21.95;41.38;101583.25;5028296;28;51080;-53
2021/10/01 02:36:02;;;;;;;;;5.75;5.00;;;;;21.94;41.87;101568.59;5037684;28;52078;-52
2021/10/01 02:38:28;;;;;;;;;6.00;3.50;;;;;21.94;41.91;101567.75;5038008;28;51171;-52
2021/10/01 02:40:53;;;;;;;;;6.00;4.25;;;;;21.93;41.81;101561.41;5026332;28;50955;-52
2021/10/01 02:43:19;;;;;;;;;5.25;4.00;;;;;21.93;41.17;101563.31;5018428;28;51176;-53
2021/10/01 02:45:44;;;;;;;;;5.00;4.00;;;;;21.93;41.65;101555.88;5025237;28;51044;-50
2021/10/01 02:48:09;;;;;;;;;5.00;4.00;;;;;21.92;41.45;101561.63;5017217;28;50955;-52
2021/10/01 02:50:36;;;;;;;;;5.00;3.50;;;;;21.92;41.86;101556.09;5025291;28;51367;-49
2021/10/01 02:53:16;;;;;;;;;5.00;3.75;;;;;21.92;41.61;101551.44;5038138;28;51308;-52
2021/10/01 02:56:17;;;;;;;;;6.50;3.75;;;;;21.92;41.50;101543.16;5037296;28;51999;-53
2021/10/01 02:58:51;;;;;;;;;5.50;3.75;;;;;21.92;41.90;101547.81;5006014;28;51364;-51
2021/10/01 03:01:20;;;;;;;;;1.50;1.50;;;;;21.92;41.90;101542.31;5020653;28;51127;-51
2021/10/01 03:03:48;;;;;;;;;4.00;3.00;;;;;21.92;41.42;101542.31;5017810;28;51114;-49
2021/10/01 03:06:19;;;;;;;;;4.25;4.00;;;;;21.90;41.92;101537.84;5017894;28;51051;-53
2021/10/01 03:08:46;;;;;;;;;7.50;4.00;;;;;21.89;41.45;101538.91;5017661;28;50962;-52
2021/10/01 03:11:14;;;;;;;;;7.25;5.00;;;;;21.90;41.42;101531.50;5028346;28;51001;-53
2021/10/01 03:13:43;;;;;;;;;4.50;2.75;;;;;21.90;41.62;101535.09;5018152;28;51014;-53
2021/10/01 03:16:09;;;;;;;;;7.00;4.00;;;;;21.89;42.00;101529.81;5020620;28;51973;-51
2021/10/01 03:18:36;;;;;;;;;4.50;3.50;;;;;21.89;41.93;101525.13;5052870;28;51387;-54
2021/10/01 03:21:03;;;;;;;;;4.50;4.00;;;;;21.89;41.59;101522.38;5053324;28;50981;-50
2021/10/01 03:23:30;;;;;;;;;3.75;3.75;;;;;21.88;42.07;101519.81;5037638;28;51056;-53
2021/10/01 03:25:55;;;;;;;;;5.50;3.25;;;;;21.89;41.67;101521.53;5037223;28;51915;-52
2021/10/01 03:28:21;;;;;;;;;2.00;2.00;;;;;21.88;41.57;101517.03;5017989;28;51082;-54
2021/10/01 03:30:48;;;;;;;;;3.25;2.25;;;;;21.87;41.63;101518.94;5023613;28;51203;-52
2021/10/01 03:33:14;;;;;;;;;2.75;1.75;;;;;21.87;42.07;101515.34;5037199;28;51010;-53
2021/10/01 03:35:42;;;;;;;;;1.50;1.50;;;;;21.86;41.53;101516.41;5036844;28;52242;-52
2021/10/01 03:38:15;;;;;;;;;3.50;2.00;;;;;21.87;42.20;101515.34;5037145;28;51048;-54
2021/10/01 03:40:44;;;;;;;;;2.00;2.00;;;;;21.85;41.98;101510.06;5030798;28;51060;-52
2021/10/01 03:43:10;;;;;;;;;4.75;3.00;;;;;21.86;41.85;101517.25;5017312;28;50974;-53
2021/10/01 03:45:36;;;;;;;;;3.00;3.00;;;;;21.86;41.66;101513.66;5017198;28;51108;-52
2021/10/01 03:48:03;;;;;;;;;1.25;1.25;;;;;21.84;42.11;101511.13;5017032;28;51135;-53
2021/10/01 03:50:29;;;;;;;;;3.00;2.75;;;;;21.85;42.18;101504.53;5021021;28;51008;-52
2021/10/01 03:52:55;;;;;;;;;3.00;3.00;;;;;21.85;42.12;101503.69;5036941;28;51024;-51
2021/10/01 03:55:21;;;;;;;;;4.00;2.75;;;;;21.84;42.07;101502.84;5036799;28;50930;-51
2021/10/01 03:57:48;;;;;;;;;1.25;1.00;;;;;21.83;42.17;101498.41;5036489;28;51282;-50
2021/10/01 04:00:15;;;;;;;;;3.00;1.00;;;;;21.84;41.60;101496.47;5033856;28;50910;-51
2021/10/01 04:02:40;;;;;;;;;2.00;2.00;;;;;21.82;42.14;101493.94;5035644;28;51167;-52
2021/10/01 04:05:06;;;;;;;;;3.00;2.00;;;;;21.83;41.62;101495.63;5034714;28;51857;-53
2021/10/01 04:07:31;;;;;;;;;1.25;1.00;;;;;21.82;41.60;101493.94;5036664;28;50965;-54
2021/10/01 04:09:56;;;;;;;;;1.75;1.00;;;;;21.83;42.18;101494.78;5036267;28;51167;-52
2021/10/01 04:12:23;;;;;;;;;2.50;1.00;;;;;21.82;42.14;101482.06;5018067;28;51218;-54
2021/10/01 04:14:50;;;;;;;;;1.00;1.00;;;;;21.82;41.72;101471.88;5016302;28;52740;-52
2021/10/01 04:17:16;;;;;;;;;1.00;1.00;;;;;21.81;42.06;101472.94;5035185;28;51343;-53
2021/10/01 04:19:42;;;;;;;;;2.00;2.00;;;;;21.81;41.62;101472.94;5036155;28;51143;-53
2021/10/01 04:22:07;;;;;;;;;1.25;1.00;;;;;21.82;42.04;101471.88;5033927;28;51045;-53
2021/10/01 04:24:33;;;;;;;;;2.00;0.50;;;;;21.81;42.28;101463.84;5036494;28;51942;-48
2021/10/01 04:26:58;;;;;;;;;2.00;2.00;;;;;21.82;41.79;101471.88;5036309;28;51120;-53
2021/10/01 04:29:24;;;;;;;;;0.50;0.50;;;;;21.81;42.01;101480.38;5018314;28;51123;-54
2021/10/01 04:31:49;;;;;;;;;2.25;2.25;;;;;21.80;42.25;101478.69;5031186;28;51154;-54
2021/10/01 04:34:15;;;;;;;;;1.00;1.00;;;;;21.79;41.78;101475.09;5034273;28;51790;-53
2021/10/01 04:36:40;;;;;;;;;2.00;1.00;;;;;21.79;42.04;101468.72;5036510;28;51115;-54
2021/10/01 04:39:05;;;;;;;;;1.00;1.00;;;;;21.79;41.77;101466.81;5036026;28;51108;-50
2021/10/01 04:41:31;;;;;;;;;1.00;1.00;;;;;21.79;42.10;101468.72;5027844;28;51274;-54
2021/10/01 04:43:56;;;;;;;;;2.00;2.00;;;;;21.79;42.15;101477.00;5047352;28;51736;-54
2021/10/01 04:46:22;;;;;;;;;2.00;2.00;;;;;21.78;41.77;101472.50;5020536;28;51138;-53
2021/10/01 04:48:49;;;;;;;;;1.00;0.50;;;;;21.77;41.71;101471.66;5016072;28;51079;-52
2021/10/01 04:51:17;;;;;;;;;1.50;1.00;;;;;21.78;41.90;101475.28;5024917;28;51152;-53
2021/10/01 04:53:43;;;;;;;;;1.00;1.00;;;;;21.77;41.80;101471.66;5035730;28;51961;-53
2021/10/01 04:56:08;;;;;;;;;1.00;1.00;;;;;21.76;41.82;101472.72;5036153;28;51112;-52
2021/10/01 04:58:34;;;;;;;;;1.50;1.50;;;;;21.76;41.85;101467.22;5023162;28;51076;-53
2021/10/01 05:01:03;;;;;;;;;1.00;1.00;;;;;21.76;42.18;101467.22;5023732;28;50899;-52
2021/10/01 05:03:29;;;;;;;;;2.00;1.00;;;;;21.75;42.07;101473.81;5035465;28;51994;-53
2021/10/01 05:05:55;;;;;;;;;0.25;0.25;;;;;21.76;42.07;101480.16;5036088;28;51025;-53
2021/10/01 05:08:20;;;;;;;;;2.25;1.00;;;;;21.76;41.96;101467.22;5034314;28;51026;-53
2021/10/01 05:10:46;;;;;;;;;2.00;1.00;;;;;21.76;42.32;101472.72;5026260;28;51001;-53
2021/10/01 05:13:11;;;;;;;;;1.50;0.00;;;;;21.76;41.88;101475.50;5015470;28;50980;-52
2021/10/01 05:15:40;;;;;;;;;0.75;0.75;;;;;21.75;41.81;101468.28;5015727;28;50978;-53
2021/10/01 05:18:05;;;;;;;;;2.00;0.25;;;;;21.75;42.43;101471.03;5016370;28;51288;-49
2021/10/01 05:20:30;;;;;;;;;2.00;1.00;;;;;21.75;42.12;101461.94;5025371;28;51152;-53
2021/10/01 05:22:56;;;;;;;;;2.00;1.00;;;;;21.75;41.89;101467.44;5035207;28;51764;-53
2021/10/01 05:25:22;;;;;;;;;2.50;2.00;;;;;21.74;42.16;101466.59;5021637;28;51055;-53
2021/10/01 05:27:47;;;;;;;;;1.00;1.00;;;;;21.74;41.89;101461.06;5037817;28;50993;-50
2021/10/01 05:30:12;;;;;;;;;1.75;1.00;;;;;21.73;42.44;101470.41;5032954;28;51735;-51
2021/10/01 05:32:38;;;;;;;;;4.25;2.00;;;;;21.73;41.77;101473.19;5025992;28;51790;-51
2021/10/01 05:35:04;;;;;;;;;4.75;1.50;;;;;21.72;41.34;101471.47;5025566;28;51333;-52
2021/10/01 05:37:29;;;;;;;;;3.50;2.00;;;;;21.71;41.09;101466.19;5019847;28;51310;-51
2021/10/01 05:39:55;;;;;;;;;1.75;1.25;;;;;21.68;41.30;101467.47;5025975;28;51046;-53
2021/10/01 05:42:20;;;;;;;;;2.00;2.00;;;;;21.69;40.96;101469.16;5021715;28;51215;-52
2021/10/01 05:44:46;;;;;;;;;2.00;1.50;;;;;21.67;40.86;101470.41;5021601;28;51168;-54
2021/10/01 05:47:11;;;;;;;;;2.75;2.00;;;;;21.65;40.42;101467.88;5020805;28;50891;-54
2021/10/01 05:49:41;;;;;;;;;2.00;2.00;;;;;21.59;39.46;101455.81;5029247;28;50999;-53
2021/10/01 05:52:55;;;;;;;;;2.75;2.75;;;;;21.52;40.05;101454.97;5033004;28;51752;-53
2021/10/01 05:54:58;;;;;;;;;2.00;2.00;;;;;21.48;39.96;101444.59;5021027;28;51349;-54
2021/10/01 05:57:23;;;;;;;;;3.00;1.25;;;;;21.47;40.17;101453.94;5035213;28;51011;-53
2021/10/01 05:59:49;;;;;;;;;3.00;2.75;;;;;21.47;40.28;101451.19;5030065;28;51402;-54
2021/10/01 06:02:17;;;;;;;;;2.00;2.00;;;;;21.45;40.24;101440.34;5023360;28;51508;-54
2021/10/01 06:04:43;;;;;;;;;2.00;2.00;;;;;21.47;40.52;101445.69;5027256;28;51202;-51
2021/10/01 06:07:08;;;;;;;;;1.50;1.00;;;;;21.47;40.58;101446.53;5022585;28;51021;-58
2021/10/01 06:09:34;;;;;;;;;2.00;2.00;;;;;21.47;40.73;101449.28;5022994;28;51174;-53
2021/10/01 06:12:00;;;;;;;;;3.00;2.25;;;;;21.48;40.56;101441.84;5030682;28;51841;-54
2021/10/01 06:14:26;;;;;;;;;1.00;1.00;;;;;21.48;40.99;101445.47;5028363;28;51104;-55
2021/10/01 06:16:52;;;;;;;;;2.25;1.00;;;;;21.51;41.45;101447.78;5024640;28;51076;-53
2021/10/01 06:19:18;;;;;;;;;1.00;1.00;;;;;21.51;41.68;101447.78;5022270;28;51063;-51
2021/10/01 06:21:44;;;;;;;;;2.00;2.00;;;;;21.52;41.32;101452.22;5019450;28;51627;-53
2021/10/01 06:24:10;;;;;;;;;1.00;1.00;;;;;21.54;41.75;101449.25;5027258;28;51503;-55
2021/10/01 06:26:36;;;;;;;;;3.75;2.75;;;;;21.55;41.79;101448.19;5036658;28;51192;-54
2021/10/01 06:29:01;;;;;;;;;1.75;1.25;;;;;21.55;41.36;101442.66;5036125;28;51102;-53
2021/10/01 06:31:26;;;;;;;;;4.25;2.00;;;;;21.56;41.49;101441.59;5029924;28;51914;-55
2021/10/01 06:33:52;;;;;;;;;1.00;1.00;;;;;21.57;41.43;101446.03;5033023;28;51121;-51
2021/10/01 06:36:20;;;;;;;;;3.25;2.00;;;;;21.58;41.63;101442.25;5029868;28;51203;-54
2021/10/01 06:38:46;;;;;;;;;2.50;1.00;;;;;21.59;41.49;101443.94;5020250;28;50881;-54
2021/10/01 06:41:13;;;;;;;;;3.00;1.00;;;;;21.60;42.08;101443.72;5022658;28;51714;-55
2021/10/01 06:43:39;;;;;;;;;2.25;1.00;;;;;21.59;41.72;101439.28;5028807;28;51377;-50
2021/10/01 06:46:12;;;;;;;;;3.00;3.00;;;;;21.61;41.80;101441.81;5020005;28;51076;-54
2021/10/01 06:51:28;;;;;;;;;1.75;1.00;;;;;21.62;42.15;101443.50;5034415;28;51182;-54
2021/10/01 08:21:00;;;;;;;;;1.75;1.75;;;;;21.80;42.40;101402.31;5026944;28;51205;-55
2021/10/01 08:23:26;;;;;;;;;3.00;1.75;;;;;21.81;42.67;101403.16;5026345;28;51046;-54
2021/10/01 08:25:52;;;;;;;;;2.00;2.00;;;;;21.82;42.41;101400.19;5029750;28;51248;-55
2021/10/01 08:28:17;;;;;;;;;1.50;1.50;;;;;21.85;42.98;101401.66;5027318;28;52109;-55
2021/10/01 08:30:43;;;;;;;;;4.75;2.00;;;;;21.84;42.98;101387.00;5029026;28;51039;-55
2021/10/01 08:33:08;;;;;;;;;1.00;1.00;;;;;21.86;42.67;101393.16;5027793;28;51394;-55
2021/10/01 08:35:34;;;;;;;;;2.00;2.00;;;;;21.86;42.53;101384.88;5026528;28;51863;-54
2021/10/01 08:38:00;;;;;;;;;3.00;2.00;;;;;21.88;42.71;101391.03;5025175;28;51703;-54
2021/10/01 08:40:25;;;;;;;;;2.00;1.00;;;;;21.89;42.92;101389.13;5029152;28;51214;-54
2021/10/01 08:42:53;;;;;;;;;3.50;3.00;;;;;21.90;42.78;101383.38;5030150;28;51358;-53
2021/10/01 08:45:21;;;;;;;;;3.75;3.00;;;;;21.90;42.63;101377.03;5027724;28;51350;-54
2021/10/01 08:47:47;;;;;;;;;1.25;1.25;;;;;21.91;42.84;101378.72;5024353;28;52025;-58
2021/10/01 08:50:18;;;;;;;;;3.50;2.75;;;;;21.92;42.78;101376.81;5026863;28;51462;-52
2021/10/01 08:52:45;;;;;;;;;4.00;1.75;;;;;21.92;42.66;101374.06;5027051;28;51301;-55
2021/10/01 08:55:12;;;;;;;;;1.50;1.50;;;;;21.93;42.26;101373.81;5030041;28;51092;-55
2021/10/01 08:57:38;;;;;;;;;3.00;1.25;;;;;21.92;42.61;101365.78;5026808;28;51772;-56
2021/10/01 09:00:09;;;;;;;;;3.00;3.00;;;;;21.94;42.49;101370.00;5030350;28;51603;-55
2021/10/01 09:02:34;;;;;;;;;2.00;1.00;;;;;21.93;42.50;101365.56;5030887;28;51045;-55
2021/10/01 09:05:00;;;;;;;;;3.50;1.50;;;;;21.94;42.25;101364.47;5028239;28;50926;-55
2021/10/01 09:07:25;;;;;;;;;1.25;1.25;;;;;21.94;42.11;101363.63;5030871;28;51084;-55
2021/10/01 09:09:53;;;;;;;;;2.75;2.00;;;;;21.95;42.58;101362.56;5029381;28;51693;-54
2021/10/01 09:12:21;;;;;;;;;2.50;1.75;;;;;21.95;42.03;101363.41;5029219;28;51284;-55
2021/10/01 09:14:54;;;;;;;;;2.00;2.00;;;;;21.96;42.27;101348.56;5026629;28;52432;-55
2021/10/01 09:17:22;;;;;;;;;4.00;2.25;;;;;21.97;41.85;101353.00;5021369;28;51376;-55
2021/10/01 09:19:52;;;;;;;;;2.75;2.75;;;;;21.98;42.38;101353.84;5026812;28;51167;-53
2021/10/01 09:22:35;;;;;;;;;3.00;1.75;;;;;21.99;41.88;101350.00;5027107;28;51446;-54
2021/10/01 09:25:17;;;;;;;;;3.00;3.00;;;;;22.00;42.41;101352.59;5023405;28;52148;-56
2021/10/01 09:27:45;;;;;;;;;2.00;2.00;;;;;22.03;42.33;101359.56;5022823;28;51969;-59
2021/10/01 09:30:13;;;;;;;;;2.25;2.00;;;;;22.03;41.85;101354.88;5028181;28;51168;-56
2021/10/01 09:32:40;;;;;;;;;2.00;1.00;;;;;22.03;42.00;101348.53;5032447;28;51100;-57
2021/10/01 09:35:16;;;;;;;;;2.50;2.50;;;;;22.03;42.35;101345.78;5027529;28;51430;-57
2021/10/01 09:37:43;;;;;;;;;2.25;1.75;;;;;22.03;42.21;101345.78;5024072;28;51946;-57
2021/10/01 09:40:10;;;;;;;;;1.25;1.25;;;;;22.03;42.14;101341.09;5023829;28;51293;-57
2021/10/01 09:42:47;;;;;;;;;2.00;2.00;;;;;22.04;41.77;101347.47;5026000;28;51117;-58
2021/10/01 09:45:15;;;;;;;;;2.00;2.00;;;;;22.04;42.37;101345.53;5027867;28;51425;-56
2021/10/01 09:47:48;;;;;;;;;2.00;2.00;;;;;22.06;42.22;101350.84;5021997;28;51740;-58
2021/10/01 09:50:20;;;;;;;;;1.00;1.00;;;;;22.06;41.68;101343.44;5020755;28;52288;-56
2021/10/01 09:52:53;;;;;;;;;3.75;2.00;;;;;22.06;41.84;101339.81;5027979;28;51072;-57
2021/10/01 09:55:21;;;;;;;;;1.50;1.50;;;;;22.05;41.91;101343.63;5020508;28;51002;-57
2021/10/01 09:58:04;;;;;;;;;2.75;2.00;;;;;22.05;42.31;101340.88;5020910;28;51245;-56
2021/10/01 10:00:39;;;;;;;;;3.25;2.00;;;;;22.05;41.74;101340.88;5028915;28;51370;-57
2021/10/01 10:03:04;;;;;;;;;2.00;2.00;;;;;22.04;42.04;101341.94;5029449;28;51139;-56
2021/10/01 10:05:52;;;;;;;;;0.75;0.75;;;;;22.04;42.25;101345.53;5029481;28;51160;-56
2021/10/01 10:08:18;;;;;;;;;3.00;2.00;;;;;22.04;41.92;101344.69;5022754;28;51946;-57
2021/10/01 10:10:45;;;;;;;;;3.25;1.00;;;;;22.05;42.20;101343.63;5031526;28;51158;-56
2021/10/01 10:13:11;;;;;;;;;3.00;1.50;;;;;22.04;42.14;101342.78;5026669;28;51186;-56
2021/10/01 10:15:36;;;;;;;;;4.00;2.00;;;;;22.05;42.53;101343.63;5029517;28;51736;-55
2021/10/01 10:18:01;;;;;;;;;1.75;1.00;;;;;22.04;42.06;101331.75;5032783;28;51791;-55
2021/10/01 10:20:26;;;;;;;;;3.75;2.50;;;;;22.03;42.10;101332.81;5023842;28;50988;-57
2021/10/01 10:22:52;;;;;;;;;4.50;1.75;;;;;22.05;42.66;101338.13;5028870;28;51265;-53
2021/10/01 10:25:17;;;;;;;;;6.00;4.75;;;;;22.04;42.16;101334.50;5034696;28;51089;-55
2021/10/01 10:27:43;;;;;;;;;3.25;2.00;;;;;22.04;42.78;101328.16;5024984;28;51139;-55
2021/10/01 10:30:10;;;;;;;;;4.00;3.00;;;;;22.07;42.85;101338.75;5030751;28;51093;-55
2021/10/01 10:32:35;;;;;;;;;2.25;2.00;;;;;22.07;42.37;101333.25;5024010;28;51095;-56
2021/10/01 10:35:07;;;;;;;;;4.25;3.00;;;;;22.07;42.82;101339.59;5045696;28;51237;-53
2021/10/01 10:37:48;;;;;;;;;3.00;2.25;;;;;22.07;42.37;101333.25;5033643;28;51829;-55
2021/10/01 10:40:15;;;;;;;;;5.75;4.00;;;;;22.08;42.49;101326.66;5035807;28;51399;-54
2021/10/01 10:42:44;;;;;;;;;4.50;4.50;;;;;22.09;43.17;101325.59;5037219;28;51203;-53
2021/10/01 10:45:16;;;;;;;;;5.00;3.50;;;;;22.10;43.34;101324.53;5035862;28;50896;-54
2021/10/01 10:47:43;;;;;;;;;6.00;3.00;;;;;22.10;43.31;101325.41;5017969;28;51954;-56
2021/10/01 10:50:33;;;;;;;;;6.00;4.50;;;;;22.11;43.08;101310.53;5021086;28;51410;-54
2021/10/01 10:53:04;;;;;;;;;7.00;5.50;;;;;22.12;42.95;101292.06;5034610;28;52377;-54
2021/10/01 10:55:42;;;;;;;;;3.75;3.00;;;;;22.14;43.49;101295.44;5035430;28;50955;-56
2021/10/01 10:58:23;;;;;;;;;5.50;3.25;;;;;22.14;43.27;101299.03;5023980;28;51197;-54
2021/10/01 11:00:52;;;;;;;;;3.00;3.00;;;;;22.14;43.54;101295.44;5025787;28;51229;-55
2021/10/01 11:03:23;;;;;;;;;3.50;3.25;;;;;22.15;42.90;101302.63;5034767;28;51246;-51
2021/10/01 11:06:10;;;;;;;;;4.00;2.50;;;;;22.16;43.07;101302.41;5024742;28;51040;-57
2021/10/01 11:09:14;;;;;;;;;4.50;3.00;;;;;22.17;43.01;101297.75;5026327;28;51676;-56
2021/10/01 11:11:45;;;;;;;;;3.50;1.50;;;;;22.17;42.80;101293.06;5027691;28;51186;-57
2021/10/01 11:14:20;;;;;;;;;3.00;3.00;;;;;22.18;42.97;101283.72;5038132;28;51095;-57
2021/10/01 11:16:51;;;;;;;;;2.25;2.25;;;;;22.18;42.88;101282.88;5054871;28;51101;-57
2021/10/01 11:19:17;;;;;;;;;4.00;3.00;;;;;22.17;43.12;101276.50;5054126;28;51041;-58
2021/10/01 11:21:43;;;;;;;;;4.75;3.00;;;;;22.19;42.74;101279.03;5054484;28;51225;-57
2021/10/01 11:24:21;;;;;;;;;1.75;1.00;;;;;22.19;42.82;101276.28;5050575;28;51488;-57
2021/10/01 11:26:54;;;;;;;;;2.75;2.00;;;;;22.19;42.92;101268.00;5036983;28;51043;-58
2021/10/01 11:29:31;;;;;;;;;2.25;2.00;;;;;22.21;42.90;101265.03;5034047;28;52079;-57
2021/10/01 11:32:01;;;;;;;;;4.50;3.75;;;;;22.21;43.18;101259.53;5032323;28;50941;-56
2021/10/01 11:34:41;;;;;;;;;4.00;2.00;;;;;22.20;43.24;101253.16;5034590;28;51103;-58
2021/10/01 11:37:30;;;;;;;;;2.00;2.00;;;;;22.21;42.93;101257.63;5036898;28;51399;-57
2021/10/01 11:40:00;;;;;;;;;1.75;1.75;;;;;22.22;43.20;101256.53;5041488;28;51911;-57
2021/10/01 11:42:39;;;;;;;;;3.25;3.00;;;;;22.22;43.04;101256.53;5030658;28;51135;-55
2021/10/01 11:45:13;;;;;;;;;3.75;2.00;;;;;22.26;42.80;101260.53;5030148;28;51281;-55
2021/10/01 11:47:48;;;;;;;;;3.25;2.00;;;;;22.27;43.34;101259.44;5029969;28;51284;-56
2021/10/01 11:50:13;;;;;;;;;2.25;2.25;;;;;22.30;43.19;101258.16;5029375;28;51841;-54
2021/10/01 11:52:44;;;;;;;;;2.00;1.00;;;;;22.31;43.04;101254.34;5031415;28;50959;-56
2021/10/01 11:55:12;;;;;;;;;1.75;1.75;;;;;22.33;42.97;101252.22;5037512;28;51206;-56
2021/10/01 11:57:40;;;;;;;;;3.75;1.75;;;;;22.36;42.80;101249.00;5027704;28;52091;-57
2021/10/01 12:00:10;;;;;;;;;3.50;1.75;;;;;22.39;43.01;101249.38;5030221;28;51203;-58
2021/10/01 12:02:37;;;;;;;;;2.50;2.50;;;;;22.41;43.38;101233.47;5029121;28;51160;-56
2021/10/01 12:05:27;;;;;;;;;4.00;2.75;;;;;22.45;42.89;101231.91;5032524;28;50995;-58
2021/10/01 12:08:11;;;;;;;;;3.50;2.00;;;;;22.47;43.48;101231.69;5032546;28;51421;-56
2021/10/01 12:10:48;;;;;;;;;2.75;2.00;;;;;22.50;43.40;101230.38;5030077;28;51095;-56
2021/10/01 12:13:22;;;;;;;;;2.00;2.00;;;;;22.52;43.73;101220.81;5031629;28;51433;-56
2021/10/01 12:15:57;;;;;;;;;3.00;2.00;;;;;22.54;43.85;101229.72;5025681;28;52165;-58
2021/10/01 12:18:41;;;;;;;;;3.00;3.00;;;;;22.57;43.82;101220.13;5023549;28;51451;-56
2021/10/01 12:21:18;;;;;;;;;3.25;1.75;;;;;22.59;44.05;101218.81;5018684;28;52127;-57
2021/10/01 12:24:10;;;;;;;;;6.00;3.00;;;;;22.62;43.90;101217.56;5027175;28;51290;-54
2021/10/01 12:26:43;;;;;;;;;5.75;2.50;;;;;22.63;43.89;101225.59;5026232;28;51437;-54
2021/10/01 12:29:19;;;;;;;;;5.00;3.00;;;;;22.63;43.86;101225.59;5055184;28;50979;-54
2021/10/01 12:31:50;;;;;;;;;2.50;2.25;;;;;22.64;44.30;101226.44;5054915;28;51757;-54
2021/10/01 12:34:24;;;;;;;;;3.00;1.75;;;;;22.64;43.59;101215.41;5036564;28;50958;-53
2021/10/01 12:37:00;;;;;;;;;4.75;2.25;;;;;22.63;43.94;101211.78;5035464;28;51186;-54
2021/10/01 12:39:28;;;;;;;;;4.00;1.75;;;;;22.61;43.77;101202.88;5033416;28;51220;-54
2021/10/01 12:41:58;;;;;;;;;3.00;1.50;;;;;22.61;43.96;101202.03;5034837;28;51905;-53
2021/10/01 12:44:23;;;;;;;;;5.25;4.00;;;;;22.59;43.49;101198.66;5017120;28;51459;-52
2021/10/01 12:46:51;;;;;;;;;0.75;0.50;;;;;22.60;43.77;101194.81;5015551;28;51136;-54
2021/10/01 12:49:23;;;;;;;;;2.00;2.00;;;;;22.60;43.86;101198.41;5015001;28;51047;-54
2021/10/01 12:52:12;;;;;;;;;2.25;2.00;;;;;22.62;43.73;101195.47;5013914;28;51822;-54
2021/10/01 12:54:41;;;;;;;;;1.75;1.00;;;;;22.61;43.32;101178.03;5033738;28;51160;-55
2021/10/01 12:57:16;;;;;;;;;2.00;2.00;;;;;22.61;43.67;101188.22;5034789;28;51060;-53
2021/10/01 13:00:06;;;;;;;;;1.50;1.50;;;;;22.61;43.15;101166.13;5034652;28;51081;-53
2021/10/01 13:02:31;;;;;;;;;4.25;3.00;;;;;22.60;43.70;101173.56;5033126;28;51080;-54
2021/10/01 13:05:21;;;;;;;;;1.25;1.25;;;;;22.60;43.68;101169.97;5014451;28;51011;-55
2021/10/01 13:07:58;;;;;;;;;2.00;2.00;;;;;22.59;43.19;101171.88;5015085;28;51084;-53